Eine Airline für jedermann.

Log-in mit der Piloten id oder email, - Jetzt Pilot werden.


b


WIKA Fly IN #5 2019

Gruppenflug EDDT - LFMN. Fliegt den fünften WIKA FLYin als Charter mit Deinem Wunschkennzeichen (WKAXXXX) nach Nizza! Wähle Deinen Slot und hab viel Spaß. Verdiene 2000€ ! Vorraussetzung: ONLINE (IVAO)seit bitte Pünktlich zur SLOT-Zeit ready for startup. Bitte im Pirep Flyin #5 angeben

Event Image
23.03.2019
20:00 (Lokalzeit)
EDDT
LFMN

EDDL Düsseldorf - HUB Metar
EDDL 261820Z 28003KT 9999 FEW025 BKN038 08/03 Q1030 NOSIG
Wind: 3 Knoten aus 280 Grad. Flughafenhöhe: 44.0 Meter / 144 ft. Temperatur: 8 / Taupunkt: 3 .
Wolkenebene 1 : FEW 2500 ft
Wolkenebene 2 : BKN 3800 ft (Broken 5-7 Achtel))

EDDL Düsseldorf - HUB Metar
EDDL 261820Z 28003KT 9999 FEW025 BKN038 08/03 Q1030 NOSIG
Wind: 3 Knoten aus 280 Grad. Flughafenhöhe: 44.0 Meter / 144 ft. Temperatur: 8 / Taupunkt: 3 .
Wolkenebene 1 : FEW 2500 ft
Wolkenebene 2 : BKN 3800 ft (Broken 5-7 Achtel))

Route: BRANE Z115 UBIGI M736 MAG DCT RELKO DCT AMOSA UN869 NATOR UN850 ODINA DCT TONDA DCT BORDI

Alle WIKA Fly In's werden grundsätzlich als Charter ( direkt im WIKACARS ) geflogen. Jeder Pilot fliegt mit einem Wunschcallsign : WKAXXXXXX

Current Signups: 20:00 - WKA0034 - Michael
20:06 - WKA0071 - Raphael
20:10 - WKA0068 - Klaus
20:12 - WKA0036 - Tizian
20:16 - WKA0022 - Achim
21:08 - WKA0003 - Tim
21:08 - WKA0003 - Tim

Zurück zur Übersicht